createdAt,value
2017-08-13T00:00:03.704Z,0
2017-08-13T00:01:13.674Z,0
2017-08-13T00:02:23.608Z,0
2017-08-13T00:06:05.918Z,0
2017-08-13T00:09:47.942Z,0
2017-08-13T00:10:58.195Z,0
2017-08-13T00:12:08.450Z,0
2017-08-13T00:13:18.393Z,0
2017-08-13T00:14:28.337Z,0
2017-08-13T00:15:38.589Z,0
2017-08-13T00:19:21.190Z,0
2017-08-13T00:23:04.686Z,0
2017-08-13T00:24:14.618Z,0
2017-08-13T00:25:24.861Z,0
2017-08-13T00:26:34.496Z,0
2017-08-13T00:27:44.724Z,0
2017-08-13T00:28:54.351Z,0
2017-08-13T00:30:04.293Z,0
2017-08-13T00:31:14.521Z,0
2017-08-13T00:32:24.755Z,0
2017-08-13T00:33:34.999Z,0
2017-08-13T00:34:44.936Z,0
2017-08-13T00:35:55.184Z,0
2017-08-13T00:37:05.452Z,0
2017-08-13T00:38:15.390Z,0
2017-08-13T00:39:25.331Z,0
2017-08-13T00:40:35.564Z,0
2017-08-13T00:41:44.866Z,0
2017-08-13T00:42:55.109Z,0
2017-08-13T00:44:05.068Z,0
2017-08-13T00:45:14.685Z,0
2017-08-13T00:46:24.618Z,0
2017-08-13T00:47:33.928Z,0
2017-08-13T00:48:44.168Z,0
2017-08-13T00:49:53.805Z,0
2017-08-13T00:51:03.753Z,0
2017-08-13T00:52:13.702Z,0
2017-08-13T00:53:23.335Z,0
2017-08-13T00:54:33.272Z,0
2017-08-13T00:55:43.523Z,0
2017-08-13T00:56:53.456Z,0
2017-08-13T00:58:03.391Z,0
2017-08-13T00:59:13.316Z,0
2017-08-13T01:00:23.281Z,0
2017-08-13T01:01:33.237Z,0
2017-08-13T01:02:43.472Z,0
2017-08-13T01:03:53.097Z,0
2017-08-13T01:05:03.345Z,0
2017-08-13T01:06:12.983Z,0
2017-08-13T01:07:22.629Z,0
2017-08-13T01:08:32.592Z,0
2017-08-13T01:09:42.223Z,0
2017-08-13T01:10:52.455Z,0
2017-08-13T01:12:02.394Z,0
2017-08-13T01:13:12.319Z,0
2017-08-13T01:14:22.554Z,0
2017-08-13T01:15:32.497Z,0
2017-08-13T01:16:42.421Z,0
2017-08-13T01:17:52.350Z,0
2017-08-13T01:19:01.974Z,0
2017-08-13T01:20:11.308Z,0
2017-08-13T01:21:21.554Z,0
2017-08-13T01:22:31.497Z,0
2017-08-13T01:23:41.437Z,0
2017-08-13T01:24:51.354Z,0
2017-08-13T01:26:01.587Z,0
2017-08-13T01:27:11.865Z,0
2017-08-13T01:28:22.117Z,0
2017-08-13T01:29:31.770Z,0
2017-08-13T01:30:41.999Z,0
2017-08-13T01:31:51.932Z,0
2017-08-13T01:33:01.254Z,0
2017-08-13T01:34:10.891Z,0
2017-08-13T01:35:20.213Z,0
2017-08-13T01:36:29.820Z,0
2017-08-13T01:37:39.750Z,0
2017-08-13T01:38:49.996Z,0
2017-08-13T01:39:59.338Z,0
2017-08-13T01:41:08.972Z,0
2017-08-13T01:42:19.208Z,0
2017-08-13T01:43:29.451Z,0
2017-08-13T01:44:39.391Z,0
2017-08-13T01:45:48.748Z,0
2017-08-13T01:46:58.709Z,0
2017-08-13T01:48:08.350Z,0
2017-08-13T01:49:17.976Z,0
2017-08-13T01:50:27.585Z,0
2017-08-13T01:51:37.834Z,0
2017-08-13T01:52:48.064Z,0
2017-08-13T01:53:57.680Z,0
2017-08-13T01:55:07.626Z,0
2017-08-13T01:56:17.558Z,0
2017-08-13T01:57:27.799Z,0
2017-08-13T01:58:38.073Z,0
2017-08-13T01:59:48.058Z,0
2017-08-13T02:00:58.297Z,0
2017-08-13T02:02:08.239Z,0
2017-08-13T02:03:18.548Z,0
2017-08-13T02:04:28.793Z,0
2017-08-13T02:05:38.421Z,0
2017-08-13T02:06:48.667Z,0
2017-08-13T02:07:58.270Z,0
2017-08-13T02:09:08.199Z,0
2017-08-13T02:10:18.119Z,0
2017-08-13T02:11:28.362Z,0
2017-08-13T02:12:38.306Z,0
2017-08-13T02:13:48.227Z,0
2017-08-13T02:14:57.840Z,0
2017-08-13T02:16:07.761Z,0
2017-08-13T02:17:18.025Z,0
2017-08-13T02:18:27.639Z,0
2017-08-13T02:19:37.946Z,0
2017-08-13T02:20:47.901Z,0
2017-08-13T02:21:57.822Z,0
2017-08-13T02:23:07.804Z,0
2017-08-13T02:24:18.046Z,0
2017-08-13T02:25:28.276Z,0
2017-08-13T02:26:38.600Z,0
2017-08-13T02:27:48.237Z,0
2017-08-13T02:28:58.189Z,0
2017-08-13T02:30:08.133Z,0
2017-08-13T02:31:18.734Z,0
2017-08-13T02:32:28.363Z,0
2017-08-13T02:33:38.593Z,0
2017-08-13T02:34:48.817Z,0
2017-08-13T02:35:58.434Z,0
2017-08-13T02:37:08.105Z,0
2017-08-13T02:38:18.330Z,0
2017-08-13T02:39:28.578Z,0
2017-08-13T02:40:38.515Z,0
2017-08-13T02:41:48.765Z,0
2017-08-13T02:42:58.398Z,0
2017-08-13T02:44:08.360Z,0
2017-08-13T02:45:18.600Z,0
2017-08-13T02:46:28.216Z,0
2017-08-13T02:47:37.847Z,0
2017-08-13T02:48:48.114Z,0
2017-08-13T02:49:58.339Z,0
2017-08-13T02:51:08.569Z,0
2017-08-13T02:52:18.815Z,0
2017-08-13T02:53:29.036Z,0
2017-08-13T02:54:38.379Z,0
2017-08-13T02:55:48.305Z,0
2017-08-13T02:56:58.244Z,0
2017-08-13T02:58:08.478Z,0
2017-08-13T02:59:18.720Z,0
2017-08-13T03:00:28.373Z,0
2017-08-13T03:01:38.606Z,0
2017-08-13T03:02:48.836Z,0
2017-08-13T03:03:59.461Z,0
2017-08-13T03:05:09.712Z,0
2017-08-13T03:06:19.340Z,0
2017-08-13T03:07:28.972Z,0
2017-08-13T03:08:39.216Z,0
2017-08-13T03:09:49.452Z,0
2017-08-13T03:10:59.073Z,0
2017-08-13T03:12:08.675Z,0
2017-08-13T03:13:18.293Z,0
2017-08-13T03:14:28.254Z,0
2017-08-13T03:15:38.207Z,0
2017-08-13T03:16:48.148Z,0
2017-08-13T03:17:58.086Z,0
2017-08-13T03:19:07.698Z,0
2017-08-13T03:20:17.962Z,0
2017-08-13T03:21:28.233Z,0
2017-08-13T03:22:38.467Z,0
2017-08-13T03:23:48.398Z,0
2017-08-13T03:24:58.325Z,0
2017-08-13T03:26:08.583Z,0
2017-08-13T03:27:18.812Z,0
2017-08-13T03:28:29.052Z,0
2017-08-13T03:29:39.006Z,0
2017-08-13T03:30:48.332Z,0
2017-08-13T03:31:58.303Z,0
2017-08-13T03:33:07.622Z,0
2017-08-13T03:34:17.542Z,0
2017-08-13T03:35:27.772Z,0
2017-08-13T03:36:37.419Z,0
2017-08-13T03:37:47.652Z,0
2017-08-13T03:38:57.569Z,0
2017-08-13T03:40:07.513Z,0
2017-08-13T03:41:17.753Z,0
2017-08-13T03:42:27.681Z,0
2017-08-13T03:43:37.953Z,0
2017-08-13T03:44:48.181Z,0
2017-08-13T03:45:58.108Z,0
2017-08-13T03:47:08.052Z,0
2017-08-13T03:48:18.000Z,0
2017-08-13T03:49:28.291Z,0
2017-08-13T03:50:38.544Z,0
2017-08-13T03:51:48.765Z,0
2017-08-13T03:52:58.687Z,0
2017-08-13T03:54:08.934Z,0
2017-08-13T03:55:18.853Z,0
2017-08-13T03:56:28.789Z,0
2017-08-13T03:57:39.043Z,0
2017-08-13T03:58:48.651Z,0
2017-08-13T03:59:58.592Z,0
2017-08-13T04:01:08.507Z,0
2017-08-13T04:02:18.781Z,0
2017-08-13T04:03:28.718Z,0
2017-08-13T04:04:38.027Z,0
2017-08-13T04:05:48.247Z,0
2017-08-13T04:06:58.165Z,0
2017-08-13T04:08:07.795Z,0
2017-08-13T04:09:18.027Z,0
2017-08-13T04:10:28.258Z,0
2017-08-13T04:11:38.216Z,0
2017-08-13T04:12:47.840Z,0
2017-08-13T04:13:57.446Z,0
2017-08-13T04:15:06.747Z,0
2017-08-13T04:16:16.375Z,0
2017-08-13T04:17:25.986Z,0
2017-08-13T04:18:35.935Z,0
2017-08-13T04:19:45.861Z,0
2017-08-13T04:20:56.093Z,0
2017-08-13T04:22:06.024Z,0
2017-08-13T04:23:15.663Z,0
2017-08-13T04:24:25.286Z,0
2017-08-13T04:25:34.589Z,0
2017-08-13T04:26:44.810Z,0
2017-08-13T04:27:54.730Z,0
2017-08-13T04:29:04.679Z,0
2017-08-13T04:30:14.933Z,0
2017-08-13T04:31:25.158Z,0
2017-08-13T04:32:35.388Z,0
2017-08-13T04:33:45.310Z,0
2017-08-13T04:34:55.235Z,0
2017-08-13T04:36:05.483Z,0
2017-08-13T04:37:15.732Z,0
2017-08-13T04:38:25.373Z,0
2017-08-13T04:39:35.334Z,0
2017-08-13T04:40:45.260Z,0
2017-08-13T04:41:55.486Z,0
2017-08-13T04:43:05.112Z,0
2017-08-13T04:44:15.042Z,0
2017-08-13T04:45:25.307Z,0
2017-08-13T04:46:35.567Z,0
2017-08-13T04:47:45.217Z,0
2017-08-13T04:48:55.147Z,0
2017-08-13T04:50:05.083Z,0
2017-08-13T04:51:15.006Z,0
2017-08-13T04:52:25.258Z,0
2017-08-13T04:53:35.194Z,0
2017-08-13T04:54:44.830Z,0
2017-08-13T04:55:54.766Z,0
2017-08-13T04:57:04.374Z,0
2017-08-13T04:58:14.319Z,0
2017-08-13T04:59:24.248Z,0
2017-08-13T05:00:33.258Z,0
2017-08-13T05:01:43.511Z,0
2017-08-13T05:02:53.131Z,0
2017-08-13T05:04:03.090Z,0
2017-08-13T05:05:13.010Z,0
2017-08-13T05:06:22.656Z,0
2017-08-13T05:07:32.904Z,0
2017-08-13T05:08:42.827Z,0
2017-08-13T05:09:52.763Z,0
2017-08-13T05:11:02.708Z,0
2017-08-13T05:12:12.012Z,0
2017-08-13T05:13:21.944Z,0
2017-08-13T05:14:32.184Z,0
2017-08-13T05:15:42.428Z,0
2017-08-13T05:16:52.057Z,0
2017-08-13T05:18:02.272Z,0
2017-08-13T05:19:12.210Z,0
2017-08-13T05:20:22.135Z,0
2017-08-13T05:21:32.050Z,0
2017-08-13T05:22:42.301Z,0
2017-08-13T05:23:52.550Z,0
2017-08-13T05:25:02.475Z,0
2017-08-13T05:26:12.405Z,0
2017-08-13T05:27:22.660Z,0
2017-08-13T05:28:32.275Z,0
2017-08-13T05:29:41.887Z,0
2017-08-13T05:30:51.510Z,0
2017-08-13T05:32:01.761Z,0
2017-08-13T05:33:11.371Z,0
2017-08-13T05:34:21.006Z,0
2017-08-13T05:35:30.953Z,0
2017-08-13T05:36:40.891Z,0
2017-08-13T05:37:51.112Z,0
2017-08-13T05:39:01.050Z,0
2017-08-13T05:40:10.995Z,0
2017-08-13T05:41:20.934Z,0
2017-08-13T05:42:31.181Z,0
2017-08-13T05:43:40.813Z,0
2017-08-13T05:44:50.434Z,0
2017-08-13T05:46:00.366Z,0
2017-08-13T05:47:09.675Z,0
2017-08-13T05:48:19.312Z,0
2017-08-13T05:49:29.542Z,0
2017-08-13T05:50:39.481Z,0
2017-08-13T05:51:49.405Z,0
2017-08-13T05:52:59.311Z,0
2017-08-13T05:54:09.268Z,0
2017-08-13T05:55:19.208Z,5
2017-08-13T05:56:29.121Z,5
2017-08-13T05:57:39.348Z,5
2017-08-13T05:58:49.591Z,5
2017-08-13T05:59:59.529Z,5
2017-08-13T06:01:09.764Z,5
2017-08-13T06:02:19.703Z,10
2017-08-13T06:03:29.334Z,10
2017-08-13T06:04:39.254Z,10
2017-08-13T06:05:49.177Z,5
2017-08-13T06:06:59.089Z,5
2017-08-13T06:08:09.016Z,5
2017-08-13T06:09:18.934Z,5
2017-08-13T06:10:28.544Z,5
2017-08-13T06:11:38.480Z,5
2017-08-13T06:12:48.393Z,5
2017-08-13T06:13:58.319Z,5
2017-08-13T06:15:08.280Z,5
2017-08-13T06:16:17.903Z,10
2017-08-13T06:17:28.150Z,10
2017-08-13T06:18:37.782Z,10
2017-08-13T06:19:47.703Z,15
2017-08-13T06:20:57.630Z,15
2017-08-13T06:22:07.551Z,20
2017-08-13T06:23:17.491Z,20
2017-08-13T06:24:27.412Z,25
2017-08-13T06:25:37.335Z,25
2017-08-13T06:26:47.262Z,25
2017-08-13T06:27:57.194Z,20
2017-08-13T06:29:07.419Z,25
2017-08-13T06:30:17.356Z,25
2017-08-13T06:31:27.611Z,25
2017-08-13T06:32:37.878Z,30
2017-08-13T06:33:47.806Z,35
2017-08-13T06:34:57.754Z,40
2017-08-13T06:36:07.376Z,40
2017-08-13T06:37:17.309Z,45
2017-08-13T06:38:27.252Z,55
2017-08-13T06:39:37.177Z,55
2017-08-13T06:40:47.099Z,55
2017-08-13T06:41:57.097Z,55
2017-08-13T06:43:07.290Z,55
2017-08-13T06:44:17.812Z,60
2017-08-13T06:45:27.730Z,60
2017-08-13T06:46:39.178Z,65
2017-08-13T06:47:49.579Z,60
2017-08-13T06:48:59.478Z,55
2017-08-13T06:50:09.164Z,45
2017-08-13T06:51:18.501Z,55
2017-08-13T06:52:28.438Z,60
2017-08-13T06:53:38.070Z,50
2017-08-13T06:54:48.782Z,50
2017-08-13T06:55:59.033Z,40
2017-08-13T06:57:09.930Z,40
2017-08-13T06:58:20.702Z,40
2017-08-13T06:59:31.203Z,40
2017-08-13T07:00:41.139Z,45
2017-08-13T07:01:51.004Z,30
2017-08-13T07:03:01.257Z,15
2017-08-13T07:04:11.197Z,15
2017-08-13T07:05:21.142Z,15
2017-08-13T07:06:30.454Z,10
2017-08-13T07:07:39.764Z,15
2017-08-13T07:08:49.694Z,20
2017-08-13T07:09:59.625Z,20
2017-08-13T07:11:09.857Z,15
2017-08-13T07:12:19.788Z,15
2017-08-13T07:13:30.020Z,20
2017-08-13T07:14:40.261Z,20
2017-08-13T07:15:50.185Z,25
2017-08-13T07:17:00.406Z,30
2017-08-13T07:18:10.018Z,30
2017-08-13T07:19:20.271Z,35
2017-08-13T07:20:29.885Z,35
2017-08-13T07:21:39.815Z,40
2017-08-13T07:22:50.063Z,45
2017-08-13T07:23:59.988Z,50
2017-08-13T07:25:09.909Z,60
2017-08-13T07:26:19.846Z,80
2017-08-13T07:27:29.779Z,130
2017-08-13T07:28:40.022Z,300
2017-08-13T07:29:49.947Z,475
2017-08-13T07:31:00.184Z,460
2017-08-13T07:32:10.125Z,420
2017-08-13T07:33:20.391Z,395
2017-08-13T07:34:30.647Z,420
2017-08-13T07:35:40.002Z,370
2017-08-13T07:36:49.636Z,340
2017-08-13T07:37:59.569Z,370
2017-08-13T07:39:09.808Z,415
2017-08-13T07:40:19.427Z,405
2017-08-13T07:41:29.664Z,420
2017-08-13T07:42:39.279Z,530
2017-08-13T07:43:48.887Z,480
2017-08-13T07:44:58.837Z,485
2017-08-13T07:46:09.078Z,495
2017-08-13T07:47:18.735Z,620
2017-08-13T07:48:28.380Z,170
2017-08-13T07:49:38.612Z,180
2017-08-13T07:50:49.069Z,225
2017-08-13T07:51:59.042Z,375
2017-08-13T07:53:09.288Z,335
2017-08-13T07:54:19.542Z,325
2017-08-13T07:55:29.819Z,440
2017-08-13T07:56:39.766Z,450
2017-08-13T07:57:49.084Z,470
2017-08-13T07:58:59.037Z,560
2017-08-13T08:00:08.984Z,570
2017-08-13T08:01:18.911Z,570
2017-08-13T08:02:29.157Z,530
2017-08-13T08:03:39.101Z,555
2017-08-13T08:04:49.348Z,560
2017-08-13T08:05:59.292Z,585
2017-08-13T08:07:09.244Z,625
2017-08-13T08:08:19.189Z,645
2017-08-13T08:09:29.183Z,600
2017-08-13T08:10:38.813Z,495
2017-08-13T08:11:49.062Z,650
2017-08-13T08:12:59.309Z,640
2017-08-13T08:14:09.265Z,510
2017-08-13T08:15:19.207Z,590
2017-08-13T08:16:29.446Z,585
2017-08-13T08:17:39.092Z,630
2017-08-13T08:18:49.361Z,230
2017-08-13T08:19:59.615Z,90
2017-08-13T08:21:09.567Z,155
2017-08-13T08:22:18.882Z,135
2017-08-13T08:23:28.534Z,135
2017-08-13T08:24:38.564Z,125
2017-08-13T08:25:48.499Z,130
2017-08-13T08:26:58.745Z,120
2017-08-13T08:28:08.848Z,95
2017-08-13T08:29:18.790Z,65
2017-08-13T08:30:28.711Z,65
2017-08-13T08:31:38.647Z,50
2017-08-13T08:32:48.897Z,70
2017-08-13T08:33:58.833Z,85
2017-08-13T08:35:09.088Z,65
2017-08-13T08:36:19.032Z,55
2017-08-13T08:37:28.357Z,45
2017-08-13T08:38:38.313Z,50
2017-08-13T08:39:48.557Z,75
2017-08-13T08:40:58.496Z,60
2017-08-13T08:42:07.828Z,55
2017-08-13T08:43:18.092Z,55
2017-08-13T08:44:29.090Z,105
2017-08-13T08:45:40.349Z,100
2017-08-13T08:46:50.874Z,110
2017-08-13T08:48:01.117Z,110
2017-08-13T08:49:11.118Z,95
2017-08-13T08:50:21.056Z,80
2017-08-13T08:51:30.143Z,70
2017-08-13T08:52:39.471Z,45
2017-08-13T08:53:49.739Z,45
2017-08-13T08:54:59.721Z,40
2017-08-13T08:56:09.944Z,30
2017-08-13T08:57:19.590Z,25
2017-08-13T08:58:29.841Z,25
2017-08-13T08:59:39.806Z,20
2017-08-13T09:00:49.740Z,15
2017-08-13T09:02:00.008Z,15
2017-08-13T09:03:10.243Z,15
2017-08-13T09:04:19.864Z,15
2017-08-13T09:05:29.483Z,15
2017-08-13T09:06:39.451Z,20
2017-08-13T09:07:49.383Z,20
2017-08-13T09:08:59.642Z,20
2017-08-13T09:10:09.617Z,20
2017-08-13T09:11:19.258Z,20
2017-08-13T09:12:29.238Z,20
2017-08-13T09:13:39.183Z,20
2017-08-13T09:14:49.417Z,20
2017-08-13T09:15:59.358Z,30
2017-08-13T09:17:09.630Z,40
2017-08-13T09:18:19.877Z,40
2017-08-13T09:19:30.126Z,40
2017-08-13T09:20:39.776Z,40
2017-08-13T09:21:49.436Z,45
2017-08-13T09:22:59.703Z,35
2017-08-13T09:24:09.643Z,35
2017-08-13T09:25:19.905Z,35
2017-08-13T09:26:29.536Z,35
2017-08-13T09:27:39.472Z,35
2017-08-13T09:28:49.088Z,35
2017-08-13T09:29:59.337Z,30
2017-08-13T09:31:09.585Z,40
2017-08-13T09:32:19.812Z,40
2017-08-13T09:33:29.465Z,35
2017-08-13T09:34:39.955Z,35
2017-08-13T09:35:49.899Z,30
2017-08-13T09:36:59.861Z,30
2017-08-13T09:38:10.120Z,30
2017-08-13T09:39:20.066Z,30
2017-08-13T09:40:29.990Z,25
2017-08-13T09:41:40.252Z,30
2017-08-13T09:42:50.500Z,30
2017-08-13T09:44:00.455Z,30
2017-08-13T09:45:10.739Z,30
2017-08-13T09:46:20.671Z,30
2017-08-13T09:47:30.619Z,30
2017-08-13T09:48:40.895Z,35
2017-08-13T09:49:50.833Z,30
2017-08-13T09:51:00.146Z,35
2017-08-13T09:52:10.070Z,25
2017-08-13T09:53:20.327Z,25
2017-08-13T09:54:29.952Z,25
2017-08-13T09:55:39.608Z,25
2017-08-13T09:56:49.235Z,20
2017-08-13T09:57:59.472Z,20
2017-08-13T09:59:09.420Z,15
2017-08-13T10:00:19.367Z,15
2017-08-13T10:01:29.287Z,15
2017-08-13T10:02:38.910Z,15
2017-08-13T10:03:48.829Z,15
2017-08-13T10:04:58.468Z,15
2017-08-13T10:06:08.703Z,15
2017-08-13T10:07:18.941Z,20
2017-08-13T10:08:29.211Z,25
2017-08-13T10:09:39.138Z,30
2017-08-13T10:10:48.497Z,25
2017-08-13T10:11:58.818Z,30
2017-08-13T10:13:09.341Z,35
2017-08-13T10:14:19.619Z,35
2017-08-13T10:15:29.232Z,30
2017-08-13T10:16:39.574Z,25
2017-08-13T10:17:48.879Z,25
2017-08-13T10:18:59.343Z,25
2017-08-13T10:20:08.969Z,25
2017-08-13T10:21:19.592Z,20
2017-08-13T10:22:30.602Z,20
2017-08-13T10:23:39.932Z,20
2017-08-13T10:24:50.281Z,20
2017-08-13T10:26:00.244Z,20
2017-08-13T10:27:10.204Z,20
2017-08-13T10:28:20.136Z,25
2017-08-13T10:29:30.419Z,25
2017-08-13T10:30:40.054Z,25
2017-08-13T10:31:49.348Z,25
2017-08-13T10:32:59.299Z,25
2017-08-13T10:34:09.536Z,25
2017-08-13T10:35:19.782Z,25
2017-08-13T10:36:29.715Z,25
2017-08-13T10:37:39.380Z,20
2017-08-13T10:38:49.021Z,20
2017-08-13T10:39:58.948Z,20
2017-08-13T10:41:08.613Z,20
2017-08-13T10:42:18.241Z,20
2017-08-13T10:43:28.271Z,25
2017-08-13T10:44:38.523Z,25
2017-08-13T10:45:48.453Z,25
2017-08-13T10:46:58.408Z,30
2017-08-13T10:48:09.147Z,30
2017-08-13T10:49:19.431Z,25
2017-08-13T10:50:29.701Z,25
2017-08-13T10:51:39.064Z,25
2017-08-13T10:52:49.346Z,25
2017-08-13T10:53:59.617Z,30
2017-08-13T10:55:09.883Z,30
2017-08-13T10:56:19.492Z,30
2017-08-13T10:57:29.748Z,30
2017-08-13T10:58:39.992Z,25
2017-08-13T10:59:50.265Z,20
2017-08-13T11:01:00.538Z,25
2017-08-13T11:02:10.797Z,25
2017-08-13T11:03:20.734Z,20
2017-08-13T11:04:31.012Z,20
2017-08-13T11:05:41.273Z,20
2017-08-13T11:06:51.224Z,15
2017-08-13T11:08:01.162Z,15
2017-08-13T11:09:11.418Z,15
2017-08-13T11:10:21.666Z,15
2017-08-13T11:11:31.605Z,20
2017-08-13T11:12:41.231Z,20
2017-08-13T11:13:51.468Z,15
2017-08-13T11:15:01.122Z,15
2017-08-13T11:16:11.078Z,20
2017-08-13T11:17:21.335Z,20
2017-08-13T11:18:31.592Z,20
2017-08-13T11:19:41.547Z,20
2017-08-13T11:20:51.188Z,15
2017-08-13T11:22:01.442Z,15
2017-08-13T11:23:11.386Z,15
2017-08-13T11:24:21.342Z,15
2017-08-13T11:25:31.289Z,20
2017-08-13T11:26:41.549Z,20
2017-08-13T11:27:51.507Z,20
2017-08-13T11:29:01.151Z,25
2017-08-13T11:30:10.811Z,30
2017-08-13T11:31:21.099Z,30
2017-08-13T11:32:31.057Z,30
2017-08-13T11:33:41.303Z,30
2017-08-13T11:34:50.951Z,30
2017-08-13T11:36:01.210Z,30
2017-08-13T11:37:11.467Z,25
2017-08-13T11:38:21.404Z,25
2017-08-13T11:39:31.040Z,30
2017-08-13T11:40:41.292Z,30
2017-08-13T11:41:50.947Z,35
2017-08-13T11:43:00.922Z,35
2017-08-13T11:44:11.208Z,35
2017-08-13T11:45:20.895Z,35
2017-08-13T11:46:30.532Z,30
2017-08-13T11:47:40.491Z,30
2017-08-13T11:48:50.133Z,25
2017-08-13T11:50:00.095Z,25
2017-08-13T11:51:10.337Z,25
2017-08-13T11:52:19.690Z,30
2017-08-13T11:53:29.937Z,30
2017-08-13T11:54:39.885Z,25
2017-08-13T11:55:49.505Z,25
2017-08-13T11:56:59.433Z,25
2017-08-13T11:58:09.516Z,30
2017-08-13T11:59:19.484Z,25
2017-08-13T12:00:29.441Z,20
2017-08-13T12:01:39.714Z,20
2017-08-13T12:02:49.658Z,25
2017-08-13T12:03:59.594Z,25
2017-08-13T12:05:09.571Z,20
2017-08-13T12:06:20.641Z,20
2017-08-13T12:07:30.604Z,20
2017-08-13T12:08:40.628Z,25
2017-08-13T12:09:50.909Z,20
2017-08-13T12:11:01.203Z,20
2017-08-13T12:12:11.435Z,15
2017-08-13T12:13:21.365Z,15
2017-08-13T12:14:31.612Z,20
2017-08-13T12:15:41.539Z,20
2017-08-13T12:16:51.490Z,15
2017-08-13T12:18:01.125Z,15
2017-08-13T12:19:11.416Z,15
2017-08-13T12:20:21.058Z,15
2017-08-13T12:21:30.729Z,15
2017-08-13T12:22:40.677Z,15
2017-08-13T12:23:50.646Z,15
2017-08-13T12:25:00.936Z,15
2017-08-13T12:26:10.902Z,15
2017-08-13T12:27:21.142Z,15
2017-08-13T12:28:30.782Z,15
2017-08-13T12:29:40.722Z,15
2017-08-13T12:30:50.679Z,15
2017-08-13T12:32:00.979Z,15
2017-08-13T12:33:10.621Z,15
2017-08-13T12:34:20.254Z,15
2017-08-13T12:35:30.209Z,20
2017-08-13T12:36:39.540Z,20
2017-08-13T12:37:48.875Z,20
2017-08-13T12:38:58.202Z,20
2017-08-13T12:40:08.457Z,20
2017-08-13T12:41:18.380Z,20
2017-08-13T12:42:28.617Z,20
2017-08-13T12:43:38.238Z,25
2017-08-13T12:44:48.176Z,20
2017-08-13T12:45:58.434Z,20
2017-08-13T12:47:08.680Z,20
2017-08-13T12:48:18.644Z,20
2017-08-13T12:49:28.292Z,20
2017-08-13T12:50:37.924Z,15
2017-08-13T12:51:47.856Z,15
2017-08-13T12:52:57.498Z,15
2017-08-13T12:54:07.141Z,15
2017-08-13T12:55:17.092Z,15
2017-08-13T12:56:27.331Z,15
2017-08-13T12:57:38.274Z,15
2017-08-13T12:58:48.219Z,10
2017-08-13T12:59:58.152Z,15
2017-08-13T13:01:07.783Z,15
2017-08-13T13:02:17.720Z,15
2017-08-13T13:03:28.009Z,15
2017-08-13T13:04:38.387Z,15
2017-08-13T13:05:48.668Z,15
2017-08-13T13:06:58.906Z,15
2017-08-13T13:08:09.241Z,15
2017-08-13T13:09:19.502Z,15
2017-08-13T13:10:29.143Z,15
2017-08-13T13:11:39.376Z,15
2017-08-13T13:12:48.761Z,15
2017-08-13T13:13:58.718Z,15
2017-08-13T13:15:08.963Z,10
2017-08-13T13:16:18.908Z,10
2017-08-13T13:17:28.231Z,10
2017-08-13T13:18:38.475Z,10
2017-08-13T13:19:48.421Z,10
2017-08-13T13:20:58.357Z,10
2017-08-13T13:22:08.337Z,10
2017-08-13T13:23:18.629Z,10
2017-08-13T13:24:27.987Z,10
2017-08-13T13:25:37.925Z,15
2017-08-13T13:26:47.735Z,10
2017-08-13T13:27:57.272Z,10
2017-08-13T13:29:06.930Z,10
2017-08-13T13:30:16.911Z,10
2017-08-13T13:31:26.550Z,10
2017-08-13T13:32:36.483Z,10
2017-08-13T13:33:46.483Z,10
2017-08-13T13:34:55.790Z,15
2017-08-13T13:36:05.191Z,15
2017-08-13T13:37:15.175Z,20
2017-08-13T13:38:24.805Z,20
2017-08-13T13:39:34.418Z,20
2017-08-13T13:40:44.665Z,20
2017-08-13T13:41:54.631Z,20
2017-08-13T13:43:05.057Z,20
2017-08-13T13:44:14.995Z,15
2017-08-13T13:45:25.247Z,15
2017-08-13T13:46:34.892Z,15
2017-08-13T13:47:44.512Z,15
2017-08-13T13:48:54.958Z,15
2017-08-13T13:50:04.951Z,15
2017-08-13T13:51:14.888Z,15
2017-08-13T13:52:24.858Z,15
2017-08-13T13:53:34.492Z,15
2017-08-13T13:54:44.410Z,15
2017-08-13T13:55:54.053Z,15
2017-08-13T13:57:04.294Z,10
2017-08-13T13:58:13.938Z,10
2017-08-13T13:59:24.204Z,10
2017-08-13T14:00:33.828Z,15
2017-08-13T14:01:43.779Z,15
2017-08-13T14:02:54.070Z,15
2017-08-13T14:04:04.293Z,20
2017-08-13T14:05:14.910Z,20
2017-08-13T14:06:24.916Z,20
2017-08-13T14:07:34.874Z,20
2017-08-13T14:08:44.856Z,20
2017-08-13T14:09:54.926Z,20
2017-08-13T14:11:06.002Z,15
2017-08-13T14:12:15.642Z,15
2017-08-13T14:13:25.577Z,15
2017-08-13T14:14:35.506Z,15
2017-08-13T14:15:45.745Z,15
2017-08-13T14:16:55.908Z,20
2017-08-13T14:18:05.863Z,25
2017-08-13T14:19:15.478Z,20
2017-08-13T14:20:25.423Z,20
2017-08-13T14:21:37.622Z,20
2017-08-13T14:22:47.701Z,20
2017-08-13T14:23:57.692Z,15
2017-08-13T14:25:07.328Z,15
2017-08-13T14:26:17.568Z,15
2017-08-13T14:27:27.833Z,10
2017-08-13T14:28:38.086Z,10
2017-08-13T14:29:48.045Z,10
2017-08-13T14:30:57.992Z,10
2017-08-13T14:32:07.917Z,10
2017-08-13T14:33:17.703Z,5
2017-08-13T14:34:27.623Z,5
2017-08-13T14:35:36.943Z,5
2017-08-13T14:36:46.862Z,5
2017-08-13T14:37:56.474Z,10
2017-08-13T14:39:06.104Z,10
2017-08-13T14:40:16.347Z,15
2017-08-13T14:41:26.366Z,15
2017-08-13T14:42:35.992Z,10
2017-08-13T14:43:46.340Z,10
2017-08-13T14:44:55.700Z,10
2017-08-13T14:46:05.963Z,10
2017-08-13T14:47:15.647Z,10
2017-08-13T14:48:25.631Z,10
2017-08-13T14:49:35.574Z,10
2017-08-13T14:50:45.568Z,10
2017-08-13T14:51:55.211Z,15
2017-08-13T14:53:04.529Z,15
2017-08-13T14:54:14.464Z,15
2017-08-13T14:55:24.126Z,15
2017-08-13T14:56:34.423Z,15
2017-08-13T14:57:44.347Z,20
2017-08-13T14:58:54.488Z,20
2017-08-13T15:00:04.121Z,20
2017-08-13T15:01:13.794Z,20
2017-08-13T15:02:24.018Z,15
2017-08-13T15:03:33.943Z,15
2017-08-13T15:04:44.170Z,15
2017-08-13T15:05:54.121Z,15
2017-08-13T15:07:04.052Z,15
2017-08-13T15:08:13.998Z,15
2017-08-13T15:09:23.931Z,15
2017-08-13T15:10:33.548Z,15
2017-08-13T15:11:43.786Z,10
2017-08-13T15:12:54.089Z,10
2017-08-13T15:14:04.071Z,15
2017-08-13T15:15:14.214Z,10
2017-08-13T15:16:23.850Z,10
2017-08-13T15:17:33.788Z,10
2017-08-13T15:18:44.043Z,10
2017-08-13T15:19:53.966Z,10
2017-08-13T15:21:03.617Z,10
2017-08-13T15:22:13.651Z,10
2017-08-13T15:23:23.225Z,10
2017-08-13T15:24:32.858Z,10
2017-08-13T15:25:42.481Z,10
2017-08-13T15:26:52.424Z,10
2017-08-13T15:28:02.655Z,10
2017-08-13T15:29:12.605Z,10
2017-08-13T15:30:22.529Z,10
2017-08-13T15:31:31.851Z,10
2017-08-13T15:32:41.789Z,10
2017-08-13T15:33:52.019Z,10
2017-08-13T15:35:02.249Z,10
2017-08-13T15:36:12.485Z,10
2017-08-13T15:37:22.722Z,10
2017-08-13T15:38:32.685Z,10
2017-08-13T15:39:42.621Z,10
2017-08-13T15:40:52.855Z,10
2017-08-13T15:42:02.493Z,10
2017-08-13T15:43:12.751Z,10
2017-08-13T15:44:22.709Z,10
2017-08-13T15:45:33.430Z,10
2017-08-13T15:46:43.358Z,10
2017-08-13T15:47:53.592Z,10
2017-08-13T15:49:03.519Z,10
2017-08-13T15:50:12.852Z,10
2017-08-13T15:51:22.792Z,5
2017-08-13T15:52:32.720Z,10
2017-08-13T15:53:42.334Z,10
2017-08-13T15:54:52.564Z,10
2017-08-13T15:56:02.492Z,5
2017-08-13T15:57:12.412Z,5
2017-08-13T15:58:22.633Z,5
2017-08-13T15:59:31.962Z,5
2017-08-13T16:00:41.588Z,5
2017-08-13T16:01:51.230Z,5
2017-08-13T16:03:01.492Z,5
2017-08-13T16:04:11.751Z,5
2017-08-13T16:05:21.679Z,5
2017-08-13T16:06:31.644Z,5
2017-08-13T16:07:41.614Z,5
2017-08-13T16:08:50.973Z,5
2017-08-13T16:10:00.949Z,5
2017-08-13T16:11:10.599Z,10
2017-08-13T16:12:20.243Z,10
2017-08-13T16:13:29.877Z,10
2017-08-13T16:14:39.835Z,10
2017-08-13T16:15:49.491Z,10
2017-08-13T16:16:59.760Z,10
2017-08-13T16:18:09.736Z,10
2017-08-13T16:19:19.416Z,10
2017-08-13T16:20:29.059Z,10
2017-08-13T16:21:39.339Z,10
2017-08-13T16:22:49.612Z,10
2017-08-13T16:23:59.613Z,10
2017-08-13T16:25:09.573Z,10
2017-08-13T16:26:18.893Z,10
2017-08-13T16:27:28.197Z,10
2017-08-13T16:28:37.193Z,10
2017-08-13T16:29:47.432Z,10
2017-08-13T16:30:57.668Z,10
2017-08-13T16:32:06.984Z,10
2017-08-13T16:33:16.912Z,10
2017-08-13T16:34:26.856Z,10
2017-08-13T16:35:37.115Z,10
2017-08-13T16:36:47.066Z,10
2017-08-13T16:37:57.307Z,10
2017-08-13T16:39:07.244Z,10
2017-08-13T16:40:16.590Z,10
2017-08-13T16:41:26.835Z,10
2017-08-13T16:42:36.769Z,10
2017-08-13T16:43:47.434Z,5
2017-08-13T16:44:57.360Z,5
2017-08-13T16:46:06.989Z,5
2017-08-13T16:47:16.644Z,5
2017-08-13T16:48:26.885Z,5
2017-08-13T16:49:37.139Z,5
2017-08-13T16:50:47.378Z,5
2017-08-13T16:51:56.995Z,5
2017-08-13T16:53:06.935Z,5
2017-08-13T16:54:17.200Z,5
2017-08-13T16:55:27.126Z,5
2017-08-13T16:56:37.078Z,5
2017-08-13T16:57:47.131Z,10
2017-08-13T16:58:56.464Z,10